createdAt,value
2022-09-07T00:01:19.728Z,5.30
2022-09-07T00:03:47.234Z,5.57
2022-09-07T00:06:15.000Z,5.57
2022-09-07T00:08:43.569Z,5.70
2022-09-07T00:11:12.860Z,5.38
2022-09-07T00:13:42.482Z,5.45
2022-09-07T00:16:11.533Z,5.22
2022-09-07T00:18:42.523Z,4.40
2022-09-07T00:21:13.508Z,4.90
2022-09-07T00:23:41.294Z,4.57
2022-09-07T00:26:09.532Z,4.43
2022-09-07T00:28:37.308Z,4.43
2022-09-07T00:31:06.345Z,4.53
2022-09-07T00:33:33.772Z,4.97
2022-09-07T00:36:01.372Z,5.40
2022-09-07T00:38:28.972Z,6.05
2022-09-07T00:40:56.540Z,6.22
2022-09-07T00:43:30.974Z,6.77
2022-09-07T00:45:58.401Z,6.65
2022-09-07T00:48:29.895Z,6.97
2022-09-07T00:50:59.740Z,7.43
2022-09-07T00:53:29.009Z,7.90
2022-09-07T00:55:57.655Z,7.87
2022-09-07T00:58:25.401Z,7.40
2022-09-07T01:00:52.821Z,7.63
2022-09-07T01:03:22.708Z,8.20
2022-09-07T01:05:53.821Z,7.70
2022-09-07T01:08:21.241Z,6.88
2022-09-07T01:10:48.673Z,6.93
2022-09-07T01:13:16.068Z,6.40
2022-09-07T01:15:47.033Z,6.90
2022-09-07T01:18:20.479Z,6.23
2022-09-07T01:20:56.243Z,5.65
2022-09-07T01:23:53.890Z,5.38
2022-09-07T01:26:38.967Z,4.97
2022-09-07T01:29:10.848Z,5.30
2022-09-07T01:31:42.835Z,5.22
2022-09-07T01:34:12.388Z,4.80
2022-09-07T01:36:47.266Z,4.90
2022-09-07T01:39:14.850Z,5.10
2022-09-07T01:41:44.410Z,4.95
2022-09-07T01:44:16.105Z,4.43
2022-09-07T01:46:46.235Z,4.68
2022-09-07T01:49:16.557Z,4.22
2022-09-07T01:51:46.196Z,4.32
2022-09-07T01:54:17.487Z,4.53
2022-09-07T01:56:46.631Z,4.28
2022-09-07T01:59:19.417Z,4.40
2022-09-07T02:01:50.239Z,4.10
2022-09-07T02:04:19.448Z,4.28
2022-09-07T02:06:50.242Z,4.45
2022-09-07T02:09:19.884Z,4.18
2022-09-07T02:11:50.106Z,4.30
2022-09-07T02:14:20.249Z,4.40
2022-09-07T02:16:49.965Z,4.13
2022-09-07T02:19:19.778Z,4.38
2022-09-07T02:21:49.933Z,4.30
2022-09-07T02:24:18.834Z,4.40
2022-09-07T02:26:47.899Z,4.20
2022-09-07T02:29:15.492Z,3.70
2022-09-07T02:31:44.234Z,2.87
2022-09-07T02:34:11.637Z,2.90
2022-09-07T02:36:42.448Z,2.95
2022-09-07T02:39:09.831Z,2.60
2022-09-07T02:41:38.664Z,2.58
2022-09-07T02:44:08.143Z,2.10
2022-09-07T02:46:41.080Z,2.30
2022-09-07T02:49:14.266Z,2.50
2022-09-07T02:51:45.768Z,2.63
2022-09-07T02:54:31.565Z,2.22
2022-09-07T02:57:01.955Z,2.70
2022-09-07T02:59:40.836Z,2.70
2022-09-07T03:02:10.549Z,2.70
2022-09-07T03:04:42.629Z,2.53
2022-09-07T03:07:12.105Z,2.20
2022-09-07T03:09:42.339Z,2.10
2022-09-07T03:12:10.004Z,2.28
2022-09-07T03:14:39.996Z,2.28
2022-09-07T03:17:07.965Z,2.30
2022-09-07T03:19:35.366Z,2.30
2022-09-07T03:22:04.105Z,2.25
2022-09-07T03:24:31.904Z,2.40
2022-09-07T03:26:59.300Z,2.50
2022-09-07T03:29:26.806Z,2.47
2022-09-07T03:31:54.159Z,2.80
2022-09-07T03:34:21.572Z,2.60
2022-09-07T03:36:48.937Z,2.70
2022-09-07T03:39:20.819Z,2.95
2022-09-07T03:41:48.907Z,2.60
2022-09-07T03:44:16.324Z,3.10
2022-09-07T03:46:44.215Z,2.80
2022-09-07T03:49:12.173Z,3.28
2022-09-07T03:51:39.587Z,3.22
2022-09-07T03:54:07.103Z,3.17
2022-09-07T03:56:35.903Z,3.30
2022-09-07T03:59:03.461Z,3.70
2022-09-07T04:01:30.915Z,3.55
2022-09-07T04:04:02.214Z,4.18
2022-09-07T04:06:30.455Z,3.83
2022-09-07T04:08:57.929Z,3.77
2022-09-07T04:11:25.323Z,3.60
2022-09-07T04:13:54.074Z,3.47
2022-09-07T04:16:22.108Z,3.73
2022-09-07T04:18:50.445Z,3.95
2022-09-07T04:21:18.183Z,3.80
2022-09-07T04:23:45.609Z,3.88
2022-09-07T04:26:18.045Z,3.60
2022-09-07T04:28:45.714Z,3.60
2022-09-07T04:31:15.827Z,3.65
2022-09-07T04:33:43.321Z,3.40
2022-09-07T04:36:10.843Z,3.40
2022-09-07T04:38:39.920Z,3.60
2022-09-07T04:41:09.306Z,3.75
2022-09-07T04:43:36.995Z,3.90
2022-09-07T04:46:04.737Z,4.28
2022-09-07T04:48:33.886Z,4.13
2022-09-07T04:51:05.902Z,4.32
2022-09-07T04:53:33.400Z,4.50
2022-09-07T04:56:00.769Z,5.82
2022-09-07T04:58:28.515Z,6.18
2022-09-07T05:00:56.426Z,6.50
2022-09-07T05:03:23.846Z,6.35
2022-09-07T05:05:52.604Z,6.15
2022-09-07T05:08:19.994Z,5.53
2022-09-07T05:10:51.470Z,5.65
2022-09-07T05:13:18.999Z,5.80
2022-09-07T05:15:46.488Z,4.60
2022-09-07T05:18:13.972Z,4.90
2022-09-07T05:20:41.340Z,4.63
2022-09-07T05:23:10.209Z,4.63
2022-09-07T05:25:43.523Z,5.18
2022-09-07T05:28:10.920Z,5.07
2022-09-07T05:36:13.167Z,4.90
2022-09-07T05:38:42.004Z,4.80
2022-09-07T05:41:13.183Z,5.03
2022-09-07T05:46:27.916Z,5.68
2022-09-07T05:48:55.296Z,5.63
2022-09-07T05:51:22.680Z,5.20
2022-09-07T05:53:51.472Z,5.50
2022-09-07T05:56:18.993Z,5.43
2022-09-07T05:58:49.250Z,5.57
2022-09-07T06:01:17.068Z,5.38
2022-09-07T06:03:45.496Z,5.40
2022-09-07T06:06:13.909Z,5.20
2022-09-07T06:08:44.968Z,5.40
2022-09-07T06:11:14.591Z,5.45
2022-09-07T06:13:42.105Z,5.15
2022-09-07T06:16:10.414Z,4.93
2022-09-07T06:18:38.832Z,5.53
2022-09-07T06:21:06.852Z,5.25
2022-09-07T06:23:34.910Z,5.10
2022-09-07T06:26:02.651Z,4.85
2022-09-07T06:28:32.057Z,6.23
2022-09-07T06:31:00.166Z,5.88
2022-09-07T06:33:27.611Z,4.95
2022-09-07T06:35:58.669Z,4.97
2022-09-07T06:38:29.980Z,4.88
2022-09-07T06:43:50.678Z,4.43
2022-09-07T06:49:05.648Z,4.40
2022-09-07T06:51:33.024Z,4.45
2022-09-07T06:56:49.153Z,5.38
2022-09-07T06:59:17.978Z,4.90
2022-09-07T07:01:45.424Z,4.60
2022-09-07T07:04:13.143Z,4.22
2022-09-07T07:06:40.832Z,3.80
2022-09-07T07:09:09.080Z,3.88
2022-09-07T07:11:37.137Z,4.40
2022-09-07T07:14:04.938Z,3.72
2022-09-07T07:16:33.738Z,3.13
2022-09-07T07:19:01.329Z,3.13
2022-09-07T07:21:38.265Z,2.65
2022-09-07T07:24:16.132Z,2.55
2022-09-07T07:26:48.445Z,2.72
2022-09-07T07:29:18.644Z,2.70
2022-09-07T07:31:47.900Z,3.25
2022-09-07T07:34:15.361Z,2.78
2022-09-07T07:36:42.756Z,3.03
2022-09-07T07:42:00.382Z,4.07
2022-09-07T07:44:30.918Z,2.63
2022-09-07T07:46:59.749Z,2.30
2022-09-07T07:49:27.247Z,2.72
2022-09-07T07:54:41.965Z,2.42
2022-09-07T07:57:09.304Z,2.60
2022-09-07T07:59:36.775Z,2.20
2022-09-07T08:02:06.092Z,2.30
2022-09-07T08:04:33.682Z,2.05
2022-09-07T08:07:03.450Z,2.17
2022-09-07T08:09:33.200Z,2.08
2022-09-07T08:12:01.532Z,1.73
2022-09-07T08:14:28.907Z,2.05
2022-09-07T08:16:56.263Z,1.85
2022-09-07T08:19:24.975Z,1.90
2022-09-07T08:21:52.370Z,2.00
2022-09-07T08:24:20.876Z,1.93
2022-09-07T08:26:48.271Z,1.80
2022-09-07T08:29:15.891Z,1.88
2022-09-07T08:31:44.202Z,2.00
2022-09-07T08:34:11.804Z,2.00
2022-09-07T08:36:40.532Z,2.60
2022-09-07T08:39:07.943Z,2.00
2022-09-07T08:41:47.787Z,2.10
2022-09-07T08:44:19.047Z,2.17
2022-09-07T08:46:47.856Z,2.00
2022-09-07T08:49:17.365Z,2.00
2022-09-07T08:51:48.661Z,2.00
2022-09-07T08:54:17.334Z,2.30
2022-09-07T08:59:41.639Z,1.92
2022-09-07T09:02:27.866Z,2.30
2022-09-07T09:07:50.319Z,1.70
2022-09-07T09:10:21.169Z,1.60
2022-09-07T09:13:01.336Z,1.40
2022-09-07T09:15:33.178Z,1.43
2022-09-07T09:18:03.939Z,1.50
2022-09-07T09:20:32.613Z,1.40
2022-09-07T09:23:07.537Z,1.40
2022-09-07T09:25:36.571Z,1.30
2022-09-07T09:28:03.978Z,1.40
2022-09-07T09:30:31.541Z,1.43
2022-09-07T09:33:13.464Z,1.70
2022-09-07T09:35:41.600Z,2.20
2022-09-07T09:41:08.784Z,2.50
2022-09-07T09:43:42.477Z,2.70
2022-09-07T09:46:20.523Z,2.83
2022-09-07T09:48:54.735Z,3.08
2022-09-07T09:54:22.402Z,3.40
2022-09-07T09:56:51.281Z,3.90
2022-09-07T10:05:25.235Z,3.78
2022-09-07T10:07:53.449Z,3.55
2022-09-07T10:10:21.063Z,3.33
2022-09-07T10:12:54.031Z,3.40
2022-09-07T10:15:27.976Z,3.50
2022-09-07T10:17:55.498Z,4.00
2022-09-07T10:20:35.852Z,3.50
2022-09-07T10:23:04.914Z,2.95
2022-09-07T10:25:34.747Z,3.45
2022-09-07T10:28:07.281Z,3.20
2022-09-07T10:30:40.162Z,3.67
2022-09-07T10:33:11.209Z,3.63
2022-09-07T10:35:45.372Z,3.55
2022-09-07T10:38:17.255Z,3.80
2022-09-07T10:40:47.580Z,3.67
2022-09-07T10:43:26.963Z,3.30
2022-09-07T10:46:11.579Z,3.13
2022-09-07T10:48:46.736Z,2.58
2022-09-07T10:51:17.956Z,2.97
2022-09-07T10:54:30.088Z,2.43
2022-09-07T10:56:40.886Z,1.92
2022-09-07T10:59:19.234Z,1.75
2022-09-07T11:01:52.283Z,1.40
2022-09-07T11:04:41.074Z,1.20
2022-09-07T11:07:19.778Z,1.20
2022-09-07T11:09:52.986Z,1.27
2022-09-07T11:12:26.103Z,1.40
2022-09-07T11:15:03.551Z,1.40
2022-09-07T11:17:31.479Z,1.13
2022-09-07T11:20:05.309Z,1.27
2022-09-07T11:22:35.274Z,1.30
2022-09-07T11:27:58.803Z,1.13
2022-09-07T11:30:31.176Z,1.60
2022-09-07T11:33:04.206Z,1.27
2022-09-07T11:35:41.997Z,1.42
2022-09-07T11:38:15.769Z,1.27
2022-09-07T11:40:50.684Z,1.60
2022-09-07T11:43:20.976Z,1.20
2022-09-07T11:45:53.728Z,1.30
2022-09-07T11:48:30.482Z,1.17
2022-09-07T11:51:00.810Z,1.15
2022-09-07T11:53:29.902Z,1.02
2022-09-07T11:56:00.180Z,1.20
2022-09-07T11:58:50.409Z,1.40
2022-09-07T12:01:29.729Z,1.23
2022-09-07T12:04:05.359Z,1.55
2022-09-07T12:06:58.155Z,1.13
2022-09-07T12:09:39.226Z,1.38
2022-09-07T12:12:18.367Z,1.40
2022-09-07T12:14:54.912Z,1.30
2022-09-07T12:17:37.448Z,1.73
2022-09-07T12:20:16.353Z,1.10
2022-09-07T12:23:04.491Z,1.50
2022-09-07T12:25:33.421Z,1.20
2022-09-07T12:28:01.614Z,1.30
2022-09-07T12:30:57.408Z,1.15
2022-09-07T12:33:34.816Z,1.40
2022-09-07T12:36:03.153Z,1.30
2022-09-07T12:39:09.092Z,1.30
2022-09-07T12:41:47.983Z,1.35
2022-09-07T12:44:20.713Z,1.30
2022-09-07T12:46:51.706Z,1.23
2022-09-07T12:49:39.003Z,1.20
2022-09-07T12:52:17.073Z,1.20
2022-09-07T12:55:09.988Z,1.52
2022-09-07T12:57:44.245Z,1.40
2022-09-07T13:00:17.794Z,1.40
2022-09-07T13:03:00.517Z,1.40
2022-09-07T13:05:40.540Z,1.27
2022-09-07T13:08:21.447Z,1.40
2022-09-07T13:10:50.294Z,1.60
2022-09-07T13:14:01.882Z,1.67
2022-09-07T13:16:30.030Z,1.33
2022-09-07T13:18:57.990Z,1.75
2022-09-07T13:21:37.303Z,1.50
2022-09-07T13:24:46.381Z,1.65
2022-09-07T13:27:41.924Z,1.60
2022-09-07T13:30:31.025Z,1.73
2022-09-07T13:33:36.190Z,1.63
2022-09-07T13:36:05.112Z,1.50
2022-09-07T13:38:34.515Z,1.70
2022-09-07T13:41:07.925Z,1.70
2022-09-07T13:43:37.117Z,1.98
2022-09-07T13:46:09.293Z,1.90
2022-09-07T13:48:38.355Z,1.58
2022-09-07T13:51:09.609Z,1.70
2022-09-07T13:53:59.804Z,1.70
2022-09-07T13:56:35.961Z,1.90
2022-09-07T13:59:14.894Z,1.80
2022-09-07T14:01:47.117Z,1.50
2022-09-07T14:04:21.843Z,1.30
2022-09-07T14:06:49.362Z,1.38
2022-09-07T14:09:19.451Z,1.40
2022-09-07T14:11:48.960Z,1.42
2022-09-07T14:14:19.965Z,1.33
2022-09-07T14:16:49.847Z,1.48
2022-09-07T14:19:24.214Z,1.80
2022-09-07T14:21:59.413Z,1.60
2022-09-07T14:24:31.488Z,1.77
2022-09-07T14:26:59.329Z,1.83
2022-09-07T14:29:31.089Z,1.60
2022-09-07T14:31:59.647Z,1.33
2022-09-07T14:34:29.862Z,1.43
2022-09-07T14:36:59.984Z,1.80
2022-09-07T14:39:30.019Z,1.67
2022-09-07T14:41:59.028Z,1.70
2022-09-07T14:44:33.467Z,1.95
2022-09-07T14:47:03.938Z,1.70
2022-09-07T14:49:31.466Z,2.15
2022-09-07T14:52:00.672Z,2.25
2022-09-07T14:54:30.816Z,1.90
2022-09-07T14:57:03.631Z,2.10
2022-09-07T14:59:39.565Z,2.00
2022-09-07T15:02:24.797Z,2.45
2022-09-07T15:05:22.429Z,2.22
2022-09-07T15:07:51.582Z,2.50
2022-09-07T15:10:35.196Z,2.10
2022-09-07T15:13:04.308Z,2.60
2022-09-07T15:15:34.591Z,2.22
2022-09-07T15:18:09.018Z,2.38
2022-09-07T15:20:41.147Z,2.60
2022-09-07T15:23:13.248Z,2.50
2022-09-07T15:25:43.298Z,2.40
2022-09-07T15:34:00.891Z,2.47
2022-09-07T15:36:28.765Z,2.47
2022-09-07T15:39:00.070Z,2.70
2022-09-07T15:41:28.497Z,2.42
2022-09-07T15:43:56.843Z,2.50
2022-09-07T15:46:25.957Z,2.50
2022-09-07T15:48:55.913Z,2.60
2022-09-07T15:54:13.062Z,2.83
2022-09-07T15:56:42.331Z,2.60
2022-09-07T15:59:10.537Z,2.38
2022-09-07T16:01:56.049Z,2.50
2022-09-07T16:04:24.346Z,2.83
2022-09-07T16:06:52.033Z,2.50
2022-09-07T16:09:21.794Z,2.53
2022-09-07T16:11:50.641Z,2.80
2022-09-07T16:14:18.730Z,2.70
2022-09-07T16:19:36.013Z,1.85
2022-09-07T16:22:04.186Z,2.25
2022-09-07T16:24:32.224Z,2.20
2022-09-07T16:26:59.740Z,2.10
2022-09-07T16:29:27.284Z,2.30
2022-09-07T16:34:44.827Z,2.10
2022-09-07T16:37:12.626Z,2.30
2022-09-07T16:39:40.215Z,2.30
2022-09-07T16:42:08.947Z,2.08
2022-09-07T16:44:36.550Z,2.20
2022-09-07T16:47:05.551Z,2.33
2022-09-07T16:49:33.070Z,2.15
2022-09-07T16:52:00.607Z,2.10
2022-09-07T16:54:28.249Z,2.20
2022-09-07T16:56:55.796Z,2.73
2022-09-07T16:59:26.676Z,2.50
2022-09-07T17:01:54.619Z,2.22
2022-09-07T17:04:24.027Z,2.47
2022-09-07T17:06:52.479Z,2.22
2022-09-07T17:09:20.614Z,2.45
2022-09-07T17:11:48.386Z,2.30
2022-09-07T17:14:16.523Z,2.20
2022-09-07T17:16:44.129Z,2.53
2022-09-07T17:22:01.939Z,2.03
2022-09-07T17:24:32.281Z,2.20
2022-09-07T17:27:00.355Z,2.28
2022-09-07T17:29:30.308Z,2.55
2022-09-07T17:34:46.691Z,2.08
2022-09-07T17:37:15.528Z,2.50
2022-09-07T17:39:44.384Z,2.17
2022-09-07T17:42:12.168Z,2.40
2022-09-07T17:44:39.688Z,2.28
2022-09-07T17:47:07.225Z,2.10
2022-09-07T17:49:34.789Z,2.40
2022-09-07T17:52:02.783Z,2.33
2022-09-07T17:54:32.755Z,2.35
2022-09-07T17:57:00.366Z,2.00
2022-09-07T18:02:15.456Z,2.80
2022-09-07T18:04:43.621Z,3.08
2022-09-07T18:07:11.411Z,2.83
2022-09-07T18:09:40.301Z,3.10
2022-09-07T18:12:08.047Z,2.67
2022-09-07T18:14:35.629Z,4.45
2022-09-07T18:17:04.972Z,3.03
2022-09-07T18:19:32.520Z,2.63
2022-09-07T18:22:02.705Z,2.70
2022-09-07T18:24:30.552Z,2.17
2022-09-07T18:26:59.385Z,2.30
2022-09-07T18:29:32.271Z,2.30
2022-09-07T18:32:02.105Z,2.40
2022-09-07T18:34:30.744Z,2.38
2022-09-07T18:36:59.134Z,2.55
2022-09-07T18:39:27.259Z,2.70
2022-09-07T18:41:55.254Z,2.55
2022-09-07T18:47:21.078Z,2.65
2022-09-07T18:49:50.739Z,2.92
2022-09-07T18:55:07.017Z,2.80
2022-09-07T18:57:36.121Z,2.80
2022-09-07T19:00:06.416Z,2.75
2022-09-07T19:02:34.388Z,3.10
2022-09-07T19:07:49.492Z,2.92
2022-09-07T19:10:17.663Z,2.90
2022-09-07T19:12:46.305Z,3.33
2022-09-07T19:15:15.914Z,3.47
2022-09-07T19:17:43.385Z,3.28
2022-09-07T19:20:11.339Z,3.28
2022-09-07T19:22:39.023Z,3.30
2022-09-07T19:25:07.086Z,4.07
2022-09-07T19:27:34.598Z,3.83
2022-09-07T19:30:02.244Z,4.10
2022-09-07T19:32:31.187Z,4.65
2022-09-07T19:34:58.667Z,4.60
2022-09-07T19:37:27.524Z,4.72
2022-09-07T19:39:55.921Z,5.10
2022-09-07T19:42:24.161Z,4.80
2022-09-07T19:44:51.680Z,5.40
2022-09-07T19:47:19.761Z,6.00
2022-09-07T19:49:48.664Z,5.80
2022-09-07T19:52:16.550Z,6.78
2022-09-07T19:54:44.522Z,5.97
2022-09-07T19:57:12.028Z,6.32
2022-09-07T19:59:39.613Z,6.25
2022-09-07T20:02:07.395Z,6.15
2022-09-07T20:04:35.751Z,6.57
2022-09-07T20:07:05.556Z,7.00
2022-09-07T20:09:33.164Z,7.07
2022-09-07T20:12:01.738Z,7.13
2022-09-07T20:14:29.382Z,7.43
2022-09-07T20:16:57.241Z,7.95
2022-09-07T20:19:24.728Z,9.13
2022-09-07T20:21:55.584Z,8.37
2022-09-07T20:24:24.741Z,8.70
2022-09-07T20:26:52.335Z,8.55
2022-09-07T20:29:28.708Z,8.70
2022-09-07T20:31:57.018Z,8.35
2022-09-07T20:34:24.639Z,8.40
2022-09-07T20:36:52.572Z,8.50
2022-09-07T20:39:20.998Z,8.80
2022-09-07T20:41:49.836Z,8.90
2022-09-07T20:44:17.964Z,9.10
2022-09-07T20:46:45.612Z,8.77
2022-09-07T20:49:13.208Z,8.98
2022-09-07T20:51:40.980Z,9.15
2022-09-07T20:54:08.593Z,9.13
2022-09-07T20:56:36.084Z,9.23
2022-09-07T20:59:05.218Z,9.65
2022-09-07T21:01:34.903Z,9.38
2022-09-07T21:04:02.935Z,9.40
2022-09-07T21:06:32.643Z,8.98
2022-09-07T21:09:00.287Z,9.55
2022-09-07T21:11:29.549Z,9.97
2022-09-07T21:13:58.228Z,9.80
2022-09-07T21:16:27.788Z,9.80
2022-09-07T21:18:57.477Z,10.52
2022-09-07T21:21:26.531Z,10.70
2022-09-07T21:23:57.607Z,10.43
2022-09-07T21:26:25.330Z,10.68
2022-09-07T21:28:57.171Z,9.95
2022-09-07T21:31:24.981Z,10.57
2022-09-07T21:33:56.410Z,10.23
2022-09-07T21:36:24.548Z,10.27
2022-09-07T21:38:52.290Z,11.03
2022-09-07T21:41:21.330Z,10.57
2022-09-07T21:43:48.919Z,11.27
2022-09-07T21:46:17.586Z,10.60
2022-09-07T21:48:45.965Z,11.07
2022-09-07T21:51:15.208Z,11.38
2022-09-07T21:53:43.190Z,11.50
2022-09-07T21:56:12.636Z,11.20
2022-09-07T21:58:40.273Z,11.88
2022-09-07T22:01:12.391Z,11.45
2022-09-07T22:03:40.702Z,11.70
2022-09-07T22:06:08.672Z,10.80
2022-09-07T22:08:38.835Z,11.20
2022-09-07T22:11:07.824Z,11.07
2022-09-07T22:13:35.798Z,11.90
2022-09-07T22:16:04.395Z,12.07
2022-09-07T22:18:31.987Z,12.85
2022-09-07T22:21:04.622Z,12.73
2022-09-07T22:23:32.822Z,12.80
2022-09-07T22:26:01.893Z,13.55
2022-09-07T22:28:30.262Z,13.20
2022-09-07T22:30:58.305Z,13.83
2022-09-07T22:33:25.967Z,14.23
2022-09-07T22:35:53.449Z,13.95
2022-09-07T22:38:21.373Z,14.25
2022-09-07T22:40:48.892Z,14.18
2022-09-07T22:43:17.742Z,13.77
2022-09-07T22:45:45.215Z,13.93
2022-09-07T22:48:12.670Z,14.07
2022-09-07T22:50:40.150Z,15.17
2022-09-07T22:53:07.690Z,15.27
2022-09-07T22:55:39.584Z,15.55
2022-09-07T22:58:07.102Z,16.48
2022-09-07T23:00:38.048Z,16.65
2022-09-07T23:03:05.905Z,16.48
2022-09-07T23:05:37.038Z,17.05
2022-09-07T23:08:05.150Z,17.40
2022-09-07T23:10:34.979Z,17.33
2022-09-07T23:13:02.536Z,18.13
2022-09-07T23:15:30.371Z,17.80
2022-09-07T23:17:59.285Z,16.98
2022-09-07T23:20:26.793Z,18.48
2022-09-07T23:22:54.318Z,17.73
2022-09-07T23:25:21.824Z,17.25
2022-09-07T23:27:49.342Z,16.48
2022-09-07T23:30:16.934Z,16.98
2022-09-07T23:32:44.474Z,16.60
2022-09-07T23:35:16.573Z,16.10
2022-09-07T23:37:44.320Z,16.02
2022-09-07T23:40:12.231Z,16.20
2022-09-07T23:42:39.865Z,16.00
2022-09-07T23:45:08.720Z,15.88
2022-09-07T23:47:36.254Z,15.35
2022-09-07T23:50:03.848Z,15.32
2022-09-07T23:52:33.364Z,15.50
2022-09-07T23:55:00.968Z,15.02
2022-09-07T23:57:28.496Z,15.48
2022-09-07T23:59:55.982Z,15.82
